createdAt,value
2018-03-11T00:00:50.350Z,37.75
2018-03-11T00:01:50.491Z,37.71
2018-03-11T00:02:50.347Z,37.75
2018-03-11T00:03:50.349Z,37.64
2018-03-11T00:04:50.532Z,37.67
2018-03-11T00:05:50.349Z,37.75
2018-03-11T00:06:50.405Z,37.59
2018-03-11T00:07:51.006Z,37.68
2018-03-11T00:08:50.542Z,37.74
2018-03-11T00:09:50.784Z,37.59
2018-03-11T00:10:50.586Z,37.67
2018-03-11T00:11:50.400Z,37.66
2018-03-11T00:12:50.398Z,37.65
2018-03-11T00:13:50.334Z,37.69
2018-03-11T00:14:50.361Z,37.65
2018-03-11T00:15:50.344Z,37.61
2018-03-11T00:16:50.349Z,37.66
2018-03-11T00:17:50.333Z,37.63
2018-03-11T00:18:50.341Z,37.57
2018-03-11T00:19:50.339Z,37.76
2018-03-11T00:20:50.364Z,37.55
2018-03-11T00:21:50.331Z,37.63
2018-03-11T00:22:50.326Z,37.69
2018-03-11T00:23:50.349Z,37.72
2018-03-11T00:24:50.331Z,37.64
2018-03-11T00:25:50.368Z,37.63
2018-03-11T00:26:50.339Z,37.69
2018-03-11T00:27:50.329Z,37.58
2018-03-11T00:28:50.361Z,37.66
2018-03-11T00:29:50.358Z,37.64
2018-03-11T00:30:50.331Z,37.63
2018-03-11T00:31:50.338Z,37.7
2018-03-11T00:32:50.345Z,37.75
2018-03-11T00:33:50.335Z,37.61
2018-03-11T00:34:50.357Z,37.71
2018-03-11T00:35:50.340Z,37.74
2018-03-11T00:36:50.361Z,37.73
2018-03-11T00:37:50.343Z,37.73
2018-03-11T00:38:50.337Z,37.69
2018-03-11T00:39:50.365Z,37.57
2018-03-11T00:40:50.330Z,37.73
2018-03-11T00:41:50.339Z,37.67
2018-03-11T00:42:50.334Z,37.58
2018-03-11T00:43:50.644Z,37.67
2018-03-11T00:44:50.324Z,37.68
2018-03-11T00:45:50.332Z,37.54
2018-03-11T00:46:50.326Z,37.7
2018-03-11T00:47:50.332Z,37.64
2018-03-11T00:48:50.341Z,37.59
2018-03-11T00:49:50.328Z,37.63
2018-03-11T00:50:50.321Z,37.72
2018-03-11T00:51:50.324Z,37.53
2018-03-11T00:52:50.328Z,37.71
2018-03-11T00:53:50.323Z,37.65
2018-03-11T00:54:50.390Z,37.62
2018-03-11T00:55:50.323Z,37.64
2018-03-11T00:56:50.333Z,37.63
2018-03-11T00:57:50.330Z,37.53
2018-03-11T00:58:50.328Z,37.62
2018-03-11T00:59:50.341Z,37.67
2018-03-11T01:00:50.326Z,37.54
2018-03-11T01:01:50.326Z,37.66
2018-03-11T01:02:50.325Z,37.66
2018-03-11T01:03:50.322Z,37.63
2018-03-11T01:04:50.351Z,37.7
2018-03-11T01:05:50.350Z,37.67
2018-03-11T01:06:50.332Z,37.75
2018-03-11T01:07:50.313Z,37.79
2018-03-11T01:08:50.318Z,37.73
2018-03-11T01:09:50.354Z,37.62
2018-03-11T01:10:50.330Z,37.77
2018-03-11T01:11:50.318Z,37.68
2018-03-11T01:12:50.323Z,37.58
2018-03-11T01:13:50.325Z,37.76
2018-03-11T01:14:50.347Z,37.84
2018-03-11T01:15:50.325Z,37.71
2018-03-11T01:16:50.330Z,37.84
2018-03-11T01:17:50.318Z,37.77
2018-03-11T01:18:50.318Z,37.75
2018-03-11T01:19:50.313Z,37.65
2018-03-11T01:20:50.353Z,37.74
2018-03-11T01:21:50.324Z,37.7
2018-03-11T01:22:50.308Z,37.79
2018-03-11T01:23:50.320Z,37.8
2018-03-11T01:24:50.339Z,37.61
2018-03-11T01:25:50.457Z,37.71
2018-03-11T01:26:50.333Z,37.73
2018-03-11T01:27:50.314Z,37.59
2018-03-11T01:28:50.336Z,37.71
2018-03-11T01:29:50.292Z,37.78
2018-03-11T01:30:50.332Z,37.68
2018-03-11T01:31:50.299Z,37.76
2018-03-11T01:32:50.342Z,37.76
2018-03-11T01:33:50.329Z,37.66
2018-03-11T01:34:50.419Z,37.8
2018-03-11T01:35:50.437Z,37.74
2018-03-11T01:36:50.333Z,37.66
2018-03-11T01:37:50.311Z,37.8
2018-03-11T01:38:50.309Z,37.72
2018-03-11T01:39:50.317Z,37.61
2018-03-11T01:40:50.341Z,37.82
2018-03-11T01:41:50.351Z,37.81
2018-03-11T01:42:50.314Z,37.68
2018-03-11T01:43:50.302Z,37.75
2018-03-11T01:44:50.310Z,37.79
2018-03-11T01:45:50.341Z,37.68
2018-03-11T01:46:50.313Z,37.84
2018-03-11T01:47:50.318Z,37.84
2018-03-11T01:48:50.310Z,37.72
2018-03-11T01:49:50.299Z,37.77
2018-03-11T01:50:50.573Z,37.8
2018-03-11T01:51:50.312Z,37.7
2018-03-11T01:52:50.291Z,37.82
2018-03-11T01:53:50.305Z,37.78
2018-03-11T01:54:50.314Z,37.67
2018-03-11T01:55:50.331Z,37.84
2018-03-11T01:56:50.296Z,37.81
2018-03-11T01:57:50.300Z,37.77
2018-03-11T01:58:50.307Z,37.76
2018-03-11T01:59:50.327Z,37.72
2018-03-11T02:00:50.310Z,37.68
2018-03-11T02:01:50.323Z,37.78
2018-03-11T02:02:50.301Z,37.77
2018-03-11T02:03:50.298Z,37.64
2018-03-11T02:04:50.335Z,37.72
2018-03-11T02:05:50.308Z,37.77
2018-03-11T02:06:50.301Z,37.65
2018-03-11T02:07:50.299Z,37.74
2018-03-11T02:08:50.337Z,37.69
2018-03-11T02:09:50.297Z,37.65
2018-03-11T02:10:50.307Z,37.82
2018-03-11T02:11:50.304Z,37.81
2018-03-11T02:12:50.351Z,37.63
2018-03-11T02:13:50.321Z,37.78
2018-03-11T02:14:50.307Z,37.73
2018-03-11T02:15:50.308Z,37.78
2018-03-11T02:16:50.313Z,37.81
2018-03-11T02:17:50.306Z,37.76
2018-03-11T02:18:50.315Z,37.67
2018-03-11T02:19:50.295Z,37.83
2018-03-11T02:20:50.301Z,37.78
2018-03-11T02:21:50.313Z,37.66
2018-03-11T02:22:50.307Z,37.83
2018-03-11T02:23:50.305Z,37.79
2018-03-11T02:24:50.319Z,37.67
2018-03-11T02:25:50.297Z,37.7
2018-03-11T02:26:50.334Z,37.79
2018-03-11T02:27:50.304Z,37.56
2018-03-11T02:28:50.281Z,37.7
2018-03-11T02:29:50.287Z,37.8
2018-03-11T02:30:50.580Z,37.71
2018-03-11T02:31:50.306Z,37.79
2018-03-11T02:32:50.306Z,37.86
2018-03-11T02:33:50.303Z,37.73
2018-03-11T02:34:50.310Z,37.83
2018-03-11T02:35:50.314Z,37.82
2018-03-11T02:36:50.293Z,37.79
2018-03-11T02:37:50.284Z,37.81
2018-03-11T02:38:50.300Z,37.93
2018-03-11T02:39:50.293Z,37.75
2018-03-11T02:40:50.295Z,37.83
2018-03-11T02:41:50.297Z,37.86
2018-03-11T02:42:50.296Z,37.75
2018-03-11T02:43:50.314Z,37.78
2018-03-11T02:44:50.306Z,37.76
2018-03-11T02:45:50.300Z,37.75
2018-03-11T02:46:50.287Z,37.79
2018-03-11T02:47:50.292Z,37.92
2018-03-11T02:48:50.334Z,37.74
2018-03-11T02:49:50.319Z,37.83
2018-03-11T02:50:50.304Z,37.8
2018-03-11T02:51:50.296Z,37.72
2018-03-11T02:52:50.298Z,37.92
2018-03-11T02:53:50.310Z,37.84
2018-03-11T02:54:50.299Z,37.71
2018-03-11T02:55:50.577Z,37.85
2018-03-11T02:56:50.292Z,37.82
2018-03-11T02:57:50.293Z,37.71
2018-03-11T02:58:50.282Z,37.86
2018-03-11T02:59:50.286Z,37.93
2018-03-11T03:00:50.317Z,37.69
2018-03-11T03:01:50.307Z,37.91
2018-03-11T03:02:50.282Z,37.9
2018-03-11T03:03:50.296Z,37.73
2018-03-11T03:04:50.285Z,37.79
2018-03-11T03:05:50.306Z,37.82
2018-03-11T03:06:50.337Z,37.71
2018-03-11T03:07:50.282Z,37.79
2018-03-11T03:08:50.283Z,37.83
2018-03-11T03:09:50.294Z,37.77
2018-03-11T03:10:50.301Z,37.81
2018-03-11T03:11:50.282Z,37.81
2018-03-11T03:12:50.308Z,37.69
2018-03-11T03:13:50.287Z,37.83
2018-03-11T03:14:50.285Z,37.95
2018-03-11T03:15:50.528Z,37.72
2018-03-11T03:16:50.290Z,37.79
2018-03-11T03:17:50.310Z,37.79
2018-03-11T03:18:50.275Z,37.71
2018-03-11T03:19:50.284Z,37.79
2018-03-11T03:20:50.566Z,37.89
2018-03-11T03:21:50.282Z,37.72
2018-03-11T03:22:50.284Z,37.79
2018-03-11T03:23:50.283Z,37.75
2018-03-11T03:24:50.259Z,37.73
2018-03-11T03:25:50.341Z,37.82
2018-03-11T03:26:50.281Z,37.81
2018-03-11T03:27:50.290Z,37.84
2018-03-11T03:28:50.273Z,37.85
2018-03-11T03:29:50.276Z,37.87
2018-03-11T03:30:50.425Z,37.73
2018-03-11T03:31:50.269Z,37.9
2018-03-11T03:32:50.276Z,37.81
2018-03-11T03:33:50.279Z,37.75
2018-03-11T03:34:50.267Z,37.82
2018-03-11T03:35:50.378Z,37.83
2018-03-11T03:36:50.395Z,37.75
2018-03-11T03:37:50.299Z,37.74
2018-03-11T03:38:50.274Z,37.87
2018-03-11T03:39:50.261Z,37.71
2018-03-11T03:40:50.281Z,37.82
2018-03-11T03:41:50.455Z,37.76
2018-03-11T03:42:50.324Z,37.74
2018-03-11T03:43:50.336Z,37.82
2018-03-11T03:44:50.384Z,37.86
2018-03-11T03:45:50.325Z,37.77
2018-03-11T03:46:50.419Z,37.83
2018-03-11T03:47:50.303Z,37.87
2018-03-11T03:48:50.333Z,37.67
2018-03-11T03:49:50.324Z,37.76
2018-03-11T03:50:50.274Z,37.85
2018-03-11T03:51:50.350Z,37.77
2018-03-11T03:52:50.351Z,37.67
2018-03-11T03:53:50.265Z,37.72
2018-03-11T03:54:50.264Z,37.66
2018-03-11T03:55:50.261Z,37.76
2018-03-11T03:56:50.302Z,37.76
2018-03-11T03:57:50.265Z,37.71
2018-03-11T03:58:50.265Z,37.78
2018-03-11T03:59:50.313Z,37.77
2018-03-11T04:00:50.262Z,37.71
2018-03-11T04:01:50.300Z,37.73
2018-03-11T04:02:50.264Z,37.82
2018-03-11T04:03:50.265Z,37.72
2018-03-11T04:04:50.260Z,37.78
2018-03-11T04:05:50.296Z,37.73
2018-03-11T04:06:50.263Z,37.76
2018-03-11T04:07:50.264Z,37.82
2018-03-11T04:08:50.273Z,37.81
2018-03-11T04:09:50.298Z,37.65
2018-03-11T04:10:50.281Z,37.74
2018-03-11T04:11:50.289Z,37.7
2018-03-11T04:12:50.261Z,37.71
2018-03-11T04:13:50.258Z,37.69
2018-03-11T04:14:50.259Z,37.8
2018-03-11T04:15:50.266Z,37.77
2018-03-11T04:16:50.264Z,37.75
2018-03-11T04:17:50.291Z,37.7
2018-03-11T04:18:50.266Z,37.65
2018-03-11T04:19:50.259Z,37.65
2018-03-11T04:20:50.271Z,37.75
2018-03-11T04:21:50.273Z,37.72
2018-03-11T04:22:50.274Z,37.63
2018-03-11T04:23:50.263Z,37.7
2018-03-11T04:24:50.256Z,37.64
2018-03-11T04:25:50.301Z,37.69
2018-03-11T04:26:50.257Z,37.73
2018-03-11T04:27:50.292Z,37.76
2018-03-11T04:28:50.251Z,37.78
2018-03-11T04:29:50.263Z,37.7
2018-03-11T04:30:50.271Z,37.77
2018-03-11T04:31:50.252Z,37.75
2018-03-11T04:32:50.544Z,37.66
2018-03-11T04:33:50.262Z,37.7
2018-03-11T04:34:50.262Z,37.77
2018-03-11T04:35:50.261Z,37.76
2018-03-11T04:36:50.256Z,37.67
2018-03-11T04:37:50.295Z,37.69
2018-03-11T04:38:50.271Z,37.69
2018-03-11T04:39:50.281Z,37.77
2018-03-11T04:40:50.260Z,37.77
2018-03-11T04:41:50.248Z,37.79
2018-03-11T04:42:50.251Z,37.73
2018-03-11T04:43:50.261Z,37.71
2018-03-11T04:44:50.278Z,37.8
2018-03-11T04:45:50.278Z,37.65
2018-03-11T04:46:50.267Z,37.8
2018-03-11T04:47:50.253Z,37.79
2018-03-11T04:48:50.268Z,37.68
2018-03-11T04:49:50.258Z,37.67
2018-03-11T04:50:50.254Z,37.77
2018-03-11T04:51:50.246Z,37.76
2018-03-11T04:52:50.260Z,37.83
2018-03-11T04:53:50.408Z,37.75
2018-03-11T04:54:50.260Z,37.61
2018-03-11T04:55:50.247Z,37.76
2018-03-11T04:56:50.226Z,37.74
2018-03-11T04:57:50.248Z,37.6
2018-03-11T04:58:50.284Z,37.62
2018-03-11T04:59:50.244Z,37.8
2018-03-11T05:00:50.241Z,37.68
2018-03-11T05:01:50.256Z,37.66
2018-03-11T05:02:50.259Z,37.74
2018-03-11T05:03:50.274Z,37.65
2018-03-11T05:04:50.243Z,37.72
2018-03-11T05:05:50.247Z,37.68
2018-03-11T05:06:50.242Z,37.73
2018-03-11T05:07:50.243Z,37.73
2018-03-11T05:08:50.253Z,37.79
2018-03-11T05:09:50.277Z,37.8
2018-03-11T05:10:50.238Z,37.81
2018-03-11T05:11:50.245Z,37.81
2018-03-11T05:12:50.241Z,37.72
2018-03-11T05:13:50.235Z,37.72
2018-03-11T05:14:50.387Z,37.75
2018-03-11T05:15:50.255Z,37.74
2018-03-11T05:16:50.235Z,37.77
2018-03-11T05:17:50.250Z,37.72
2018-03-11T05:18:50.243Z,37.72
2018-03-11T05:19:50.241Z,37.67
2018-03-11T05:20:50.303Z,37.62
2018-03-11T05:21:50.306Z,37.73
2018-03-11T05:22:50.247Z,37.7
2018-03-11T05:23:50.237Z,37.61
2018-03-11T05:24:50.242Z,37.65
2018-03-11T05:25:50.231Z,37.64
2018-03-11T05:26:50.270Z,37.59
2018-03-11T05:27:50.230Z,37.7
2018-03-11T05:28:50.260Z,37.54
2018-03-11T05:29:50.230Z,37.59
2018-03-11T05:30:50.247Z,37.65
2018-03-11T05:31:50.301Z,37.54
2018-03-11T05:32:50.237Z,37.56
2018-03-11T05:33:50.241Z,37.64
2018-03-11T05:34:50.240Z,37.52
2018-03-11T05:35:50.235Z,37.59
2018-03-11T05:36:50.337Z,37.61
2018-03-11T05:37:50.319Z,37.58
2018-03-11T05:38:50.251Z,37.54
2018-03-11T05:39:50.229Z,37.62
2018-03-11T05:40:50.247Z,37.61
2018-03-11T05:41:50.243Z,37.58
2018-03-11T05:42:50.235Z,37.63
2018-03-11T05:43:50.232Z,37.61
2018-03-11T05:44:50.235Z,37.47
2018-03-11T05:45:50.238Z,37.58
2018-03-11T05:46:50.265Z,37.48
2018-03-11T05:47:50.230Z,37.55
2018-03-11T05:48:50.229Z,37.63
2018-03-11T05:49:50.258Z,37.49
2018-03-11T05:50:50.227Z,37.48
2018-03-11T05:51:50.225Z,37.62
2018-03-11T05:52:50.253Z,37.51
2018-03-11T05:53:50.235Z,37.46
2018-03-11T05:54:50.266Z,37.59
2018-03-11T05:55:50.220Z,37.44
2018-03-11T05:56:50.228Z,37.39
2018-03-11T05:57:50.226Z,37.53
2018-03-11T05:58:50.237Z,37.53
2018-03-11T05:59:50.258Z,37.49
2018-03-11T06:00:50.230Z,37.54
2018-03-11T06:01:50.228Z,37.46
2018-03-11T06:02:50.241Z,37.43
2018-03-11T06:03:50.228Z,37.62
2018-03-11T06:04:50.259Z,37.42
2018-03-11T06:05:50.225Z,37.49
2018-03-11T06:06:50.264Z,37.53
2018-03-11T06:07:50.216Z,37.47
2018-03-11T06:08:50.253Z,37.34
2018-03-11T06:09:50.257Z,37.43
2018-03-11T06:10:50.255Z,37.49
2018-03-11T06:11:50.236Z,37.38
2018-03-11T06:12:50.228Z,37.47
2018-03-11T06:13:50.217Z,37.41
2018-03-11T06:14:50.246Z,37.43
2018-03-11T06:15:50.219Z,37.49
2018-03-11T06:16:50.333Z,37.48
2018-03-11T06:17:50.254Z,37.38
2018-03-11T06:18:50.220Z,37.51
2018-03-11T06:19:50.223Z,37.48
2018-03-11T06:20:50.222Z,37.49
2018-03-11T06:21:50.228Z,37.46
2018-03-11T06:22:50.253Z,37.42
2018-03-11T06:23:50.223Z,37.48
2018-03-11T06:24:50.261Z,37.45
2018-03-11T06:25:50.223Z,37.42
2018-03-11T06:26:50.212Z,37.38
2018-03-11T06:27:50.204Z,37.43
2018-03-11T06:28:50.223Z,37.4
2018-03-11T06:29:50.280Z,37.29
2018-03-11T06:30:50.220Z,37.41
2018-03-11T06:31:50.215Z,37.33
2018-03-11T06:32:50.211Z,37.33
2018-03-11T06:33:50.218Z,37.36
2018-03-11T06:34:50.249Z,37.27
2018-03-11T06:35:50.238Z,37.36
2018-03-11T06:36:50.232Z,37.32
2018-03-11T06:37:50.220Z,37.26
2018-03-11T06:38:50.213Z,37.31
2018-03-11T06:39:50.215Z,37.41
2018-03-11T06:40:50.242Z,37.31
2018-03-11T06:41:50.227Z,37.31
2018-03-11T06:42:50.231Z,37.3
2018-03-11T06:43:50.211Z,37.25
2018-03-11T06:44:50.211Z,37.32
2018-03-11T06:45:50.216Z,37.28
2018-03-11T06:46:50.219Z,37.28
2018-03-11T06:47:50.217Z,37.33
2018-03-11T06:48:50.226Z,37.33
2018-03-11T06:49:50.179Z,37.29
2018-03-11T06:50:50.203Z,37.23
2018-03-11T06:51:50.220Z,37.29
2018-03-11T06:52:50.211Z,37.2
2018-03-11T06:53:50.211Z,37.25
2018-03-11T06:54:50.214Z,37.3
2018-03-11T06:55:50.207Z,37.21
2018-03-11T06:56:50.221Z,37.2
2018-03-11T06:57:50.210Z,37.23
2018-03-11T06:58:50.211Z,37.18
2018-03-11T06:59:50.222Z,37.21
2018-03-11T07:00:50.196Z,37.26
2018-03-11T07:01:50.196Z,37.18
2018-03-11T07:02:50.232Z,37.15
2018-03-11T07:03:50.285Z,37.19
2018-03-11T07:04:50.205Z,37.11
2018-03-11T07:05:50.201Z,37.16
2018-03-11T07:06:50.213Z,37.21
2018-03-11T07:07:50.230Z,37.14
2018-03-11T07:08:50.216Z,37.14
2018-03-11T07:09:50.225Z,37.17
2018-03-11T07:10:50.304Z,37.16
2018-03-11T07:11:50.207Z,37.2
2018-03-11T07:12:50.204Z,37.11
2018-03-11T07:13:50.226Z,37.13
2018-03-11T07:14:50.213Z,37.2
2018-03-11T07:15:50.193Z,37.15
2018-03-11T07:16:50.198Z,37.15
2018-03-11T07:17:50.234Z,37.17
2018-03-11T07:18:50.241Z,37.15
2018-03-11T07:19:50.203Z,37.1
2018-03-11T07:20:50.210Z,37.15
2018-03-11T07:21:50.193Z,37.14
2018-03-11T07:22:50.463Z,37.11
2018-03-11T07:23:50.196Z,37.06
2018-03-11T07:24:50.235Z,37.2
2018-03-11T07:25:50.203Z,37.12
2018-03-11T07:26:50.200Z,37.11
2018-03-11T07:27:50.455Z,37.17
2018-03-11T07:28:50.199Z,37.12
2018-03-11T07:29:50.195Z,37.06
2018-03-11T07:30:50.214Z,37.09
2018-03-11T07:31:50.196Z,37.11
2018-03-11T07:32:50.231Z,37.07
2018-03-11T07:33:50.206Z,37.09
2018-03-11T07:34:50.193Z,37.05
2018-03-11T07:35:50.178Z,37.05
2018-03-11T07:36:50.195Z,37.05
2018-03-11T07:37:50.558Z,37.04
2018-03-11T07:38:50.285Z,37.02
2018-03-11T07:39:50.200Z,37.02
2018-03-11T07:40:50.194Z,36.91
2018-03-11T07:41:50.188Z,36.97
2018-03-11T07:42:50.218Z,36.97
2018-03-11T07:43:50.205Z,37.02
2018-03-11T07:44:50.237Z,36.99
2018-03-11T07:45:50.213Z,37
2018-03-11T07:46:50.206Z,36.91
2018-03-11T07:47:50.239Z,36.99
2018-03-11T07:48:50.211Z,36.96
2018-03-11T07:49:50.215Z,36.92
2018-03-11T07:50:50.261Z,36.96
2018-03-11T07:51:50.233Z,37.04
2018-03-11T07:52:50.229Z,36.96
2018-03-11T07:53:50.240Z,36.93
2018-03-11T07:54:50.207Z,36.93
2018-03-11T07:55:50.202Z,36.87
2018-03-11T07:56:50.205Z,36.94
2018-03-11T07:57:50.200Z,36.99
2018-03-11T07:58:50.201Z,36.95
2018-03-11T07:59:50.230Z,36.95
2018-03-11T08:00:50.213Z,36.95
2018-03-11T08:01:50.296Z,36.85
2018-03-11T08:02:50.536Z,36.97
2018-03-11T08:03:50.200Z,36.95
2018-03-11T08:04:50.233Z,36.9
2018-03-11T08:05:50.216Z,36.9
2018-03-11T08:06:50.202Z,36.9
2018-03-11T08:07:50.227Z,36.95
2018-03-11T08:08:50.198Z,36.89
2018-03-11T08:09:50.207Z,36.88
2018-03-11T08:10:50.202Z,36.87
2018-03-11T08:11:50.217Z,36.92
2018-03-11T08:12:50.218Z,36.86
2018-03-11T08:13:50.193Z,36.9
2018-03-11T08:14:50.193Z,36.97
2018-03-11T08:15:50.198Z,36.85
2018-03-11T08:16:50.195Z,36.9
2018-03-11T08:17:50.330Z,36.89
2018-03-11T08:18:50.227Z,37.08
2018-03-11T08:19:50.198Z,37.11
2018-03-11T08:20:50.200Z,37.15
2018-03-11T08:21:50.199Z,37.08
2018-03-11T08:22:50.234Z,37.13
2018-03-11T08:23:50.203Z,37.01
2018-03-11T08:24:50.196Z,37.03
2018-03-11T08:25:50.295Z,37.02
2018-03-11T08:26:50.204Z,36.98
2018-03-11T08:27:50.227Z,36.97
2018-03-11T08:28:50.211Z,36.91
2018-03-11T08:29:50.212Z,36.92
2018-03-11T08:30:50.196Z,36.99
2018-03-11T08:31:50.210Z,36.91
2018-03-11T08:32:50.203Z,36.92
2018-03-11T08:33:50.198Z,36.88
2018-03-11T08:34:50.183Z,36.86
2018-03-11T08:35:50.192Z,37.02
2018-03-11T08:36:50.200Z,36.97
2018-03-11T08:37:50.190Z,36.95
2018-03-11T08:38:50.196Z,36.94
2018-03-11T08:39:50.227Z,36.88
2018-03-11T08:40:50.265Z,36.98
2018-03-11T08:41:50.286Z,37.08
2018-03-11T08:42:50.374Z,37.56
2018-03-11T08:43:50.175Z,37.5
2018-03-11T08:44:50.243Z,37.68
2018-03-11T08:45:50.186Z,37.83
2018-03-11T08:46:50.186Z,37.95
2018-03-11T08:47:50.182Z,37.82
2018-03-11T08:48:50.188Z,38.67
2018-03-11T08:49:50.379Z,38.31
2018-03-11T08:50:50.198Z,38.49
2018-03-11T08:51:50.188Z,39.31
2018-03-11T08:52:50.273Z,38.52
2018-03-11T08:53:50.374Z,38.25
2018-03-11T08:54:50.220Z,39.24
2018-03-11T08:55:50.347Z,38.61
2018-03-11T08:56:50.197Z,38.78
2018-03-11T08:57:50.197Z,39.14
2018-03-11T08:58:50.195Z,38.58
2018-03-11T08:59:50.198Z,37.92
2018-03-11T09:00:50.198Z,39.41
2018-03-11T09:01:50.206Z,38.52
2018-03-11T09:02:50.199Z,37.71
2018-03-11T09:03:50.187Z,38.54
2018-03-11T09:04:50.212Z,37.68
2018-03-11T09:05:50.192Z,37.81
2018-03-11T09:06:50.181Z,38.94
2018-03-11T09:07:50.173Z,37.6
2018-03-11T09:08:50.028Z,37.51
2018-03-11T09:09:50.221Z,38.91
2018-03-11T09:10:50.192Z,37.8
2018-03-11T09:11:50.184Z,38.42
2018-03-11T09:12:50.185Z,38.68
2018-03-11T09:13:50.226Z,37.96
2018-03-11T09:14:50.163Z,37.97
2018-03-11T09:15:50.205Z,38.97
2018-03-11T09:16:50.176Z,37.85
2018-03-11T09:17:50.188Z,37.79
2018-03-11T09:18:50.175Z,39.53
2018-03-11T09:19:50.187Z,38.53
2018-03-11T09:20:50.463Z,38.73
2018-03-11T09:21:50.184Z,39.31
2018-03-11T09:22:50.184Z,38.83
2018-03-11T09:23:50.195Z,38.92
2018-03-11T09:24:50.213Z,39.77
2018-03-11T09:25:50.207Z,38.73
2018-03-11T09:26:50.177Z,38.55
2018-03-11T09:27:50.195Z,39.52
2018-03-11T09:28:50.217Z,38.55
2018-03-11T09:29:50.190Z,38.63
2018-03-11T09:30:50.209Z,39.38
2018-03-11T09:31:50.168Z,38.54
2018-03-11T09:32:50.186Z,38.83
2018-03-11T09:33:50.179Z,39.53
2018-03-11T09:34:50.230Z,38.82
2018-03-11T09:35:50.201Z,38.51
2018-03-11T09:36:50.175Z,39.44
2018-03-11T09:37:50.173Z,38.6
2018-03-11T09:38:50.300Z,38.75
2018-03-11T09:39:50.282Z,39.61
2018-03-11T09:40:50.217Z,38.38
2018-03-11T09:41:50.177Z,38.09
2018-03-11T09:42:50.172Z,38.28
2018-03-11T09:43:50.187Z,37.79
2018-03-11T09:44:50.171Z,37.67
2018-03-11T09:45:50.201Z,37.97
2018-03-11T09:46:50.170Z,37.6
2018-03-11T09:47:50.187Z,37.48
2018-03-11T09:48:50.190Z,37.78
2018-03-11T09:49:50.173Z,37.47
2018-03-11T09:50:50.178Z,37.45
2018-03-11T09:51:50.174Z,37.69
2018-03-11T09:52:50.172Z,37.36
2018-03-11T09:53:50.187Z,37.33
2018-03-11T09:54:50.180Z,37.74
2018-03-11T09:55:50.165Z,37.41
2018-03-11T09:56:50.380Z,37.32
2018-03-11T09:57:50.171Z,37.55
2018-03-11T09:58:50.177Z,37.25
2018-03-11T09:59:50.171Z,37.29
2018-03-11T10:00:50.039Z,37.69
2018-03-11T10:01:50.165Z,37.27
2018-03-11T10:02:50.206Z,37.28
2018-03-11T10:03:50.162Z,37.54
2018-03-11T10:04:50.175Z,37.73
2018-03-11T10:05:50.170Z,37.72
2018-03-11T10:06:50.164Z,38.14
2018-03-11T10:07:50.187Z,37.91
2018-03-11T10:08:50.174Z,38.25
2018-03-11T10:09:50.157Z,38.65
2018-03-11T10:10:50.175Z,38.2
2018-03-11T10:11:50.196Z,38.34
2018-03-11T10:12:50.178Z,38.77
2018-03-11T10:13:50.191Z,38.31
2018-03-11T10:14:50.153Z,38.37
2018-03-11T10:15:34.236Z,41.27
2018-03-11T10:16:34.220Z,37.93
2018-03-11T10:17:34.205Z,38.68
2018-03-11T10:18:34.168Z,37.96
2018-03-11T10:19:34.158Z,37.37
2018-03-11T10:20:34.210Z,37.31
2018-03-11T10:21:34.191Z,37.19
2018-03-11T10:22:34.181Z,37.23
2018-03-11T10:23:34.168Z,37.21
2018-03-11T10:24:34.188Z,37.2
2018-03-11T10:25:34.164Z,37.18
2018-03-11T10:26:34.156Z,37.05
2018-03-11T10:27:34.162Z,36.91
2018-03-11T10:28:34.156Z,37.08
2018-03-11T10:29:34.175Z,37
2018-03-11T10:30:34.165Z,36.97
2018-03-11T10:31:34.180Z,36.99
2018-03-11T10:32:34.163Z,36.94
2018-03-11T10:33:52.065Z,37.23
2018-03-11T10:33:58.829Z,36.91
2018-03-11T10:34:27.964Z,41.2
2018-03-11T10:35:28.076Z,38.23
2018-03-11T10:36:27.928Z,37
2018-03-11T10:37:27.998Z,36.78
2018-03-11T10:38:27.917Z,36.7
2018-03-11T10:39:27.970Z,36.73
2018-03-11T10:40:27.921Z,37.04
2018-03-11T10:41:27.922Z,36.66
2018-03-11T10:42:27.972Z,36.27
2018-03-11T10:43:27.944Z,36.27
2018-03-11T10:44:27.982Z,36.18
2018-03-11T10:45:27.927Z,36.27
2018-03-11T10:46:27.918Z,36.21
2018-03-11T10:47:28.196Z,36.23
2018-03-11T10:48:27.926Z,36.26
2018-03-11T10:49:27.942Z,36.3
2018-03-11T10:50:27.929Z,36.34
2018-03-11T10:51:27.932Z,36.35
2018-03-11T10:52:27.932Z,36.27
2018-03-11T10:53:27.947Z,36.4
2018-03-11T11:55:35.005Z,37.08
2018-03-11T11:56:35.004Z,36.82
2018-03-11T11:57:35.007Z,36.84
2018-03-11T11:58:35.215Z,36.95
2018-03-11T11:59:20.628Z,37.03
2018-03-11T12:00:20.634Z,36.95
2018-03-11T12:01:20.635Z,36.87
2018-03-11T12:02:20.633Z,36.85
2018-03-11T12:03:20.659Z,36.92
2018-03-11T12:04:20.644Z,36.91
2018-03-11T12:05:20.697Z,36.92
2018-03-11T12:06:20.630Z,37.08
2018-03-11T12:07:20.637Z,36.87
2018-03-11T12:08:20.635Z,37.05
2018-03-11T12:09:20.637Z,36.86
2018-03-11T12:10:20.638Z,36.95
2018-03-11T12:11:20.719Z,37.02
2018-03-11T12:12:20.641Z,37.02
2018-03-11T12:40:30.851Z,35.81
2018-03-11T12:41:30.856Z,35.91
2018-03-11T12:42:30.863Z,35.73
2018-03-11T12:43:30.964Z,35.96
2018-03-11T12:44:30.853Z,35.99
2018-03-11T12:45:30.878Z,35.98
2018-03-11T12:46:30.858Z,36.38
2018-03-11T12:47:30.871Z,36.09
2018-03-11T12:48:30.858Z,36.22
2018-03-11T12:49:30.868Z,36.43
2018-03-11T12:50:30.860Z,36.26
2018-03-11T12:51:30.860Z,36.42
2018-03-11T12:52:30.861Z,36.55
2018-03-11T12:53:30.861Z,36.46
2018-03-11T12:54:30.862Z,36.44
2018-03-11T12:55:30.893Z,36.64
2018-03-11T12:56:30.865Z,36.43
2018-03-11T12:57:30.862Z,36.62
2018-03-11T12:58:30.918Z,36.46
2018-03-11T12:59:30.866Z,36.58
2018-03-11T13:00:30.885Z,36.66
2018-03-11T13:01:30.868Z,36.77
2018-03-11T13:02:30.865Z,36.54
2018-03-11T13:03:30.864Z,36.72
2018-03-11T13:04:30.864Z,36.7
2018-03-11T13:05:30.867Z,36.72
2018-03-11T13:06:30.885Z,36.62
2018-03-11T13:07:30.868Z,36.6
2018-03-11T13:08:31.172Z,36.65
2018-03-11T13:09:30.878Z,36.7
2018-03-11T13:10:30.871Z,36.82
2018-03-11T13:11:30.875Z,36.71
2018-03-11T13:12:30.869Z,36.59
2018-03-11T13:13:30.985Z,36.73
2018-03-11T13:14:30.890Z,36.68
2018-03-11T13:15:30.917Z,36.68
2018-03-11T13:16:30.934Z,36.77
2018-03-11T13:17:30.881Z,36.71
2018-03-11T13:18:30.868Z,37.07
2018-03-11T13:19:31.170Z,36.84
2018-03-11T13:20:30.870Z,36.71
2018-03-11T13:21:22.978Z,36.64
2018-03-11T13:31:46.639Z,36.38
2018-03-11T13:31:59.223Z,36.39
2018-03-11T13:32:14.956Z,36.51
2018-03-11T13:32:39.796Z,36.43
2018-03-11T13:33:39.797Z,36.34
2018-03-11T13:34:39.796Z,36.36
2018-03-11T13:35:40.846Z,36.5
2018-03-11T13:36:40.847Z,36.28
2018-03-11T13:37:40.850Z,36.36
2018-03-11T13:38:08.229Z,36.29
2018-03-11T13:46:03.363Z,37.38
2018-03-11T13:46:18.298Z,37.32
2018-03-11T13:47:18.371Z,37.41
2018-03-11T13:57:47.532Z,37.34
2018-03-11T13:58:47.546Z,37.33
2018-03-11T13:59:47.532Z,37.18
2018-03-11T14:00:47.444Z,37.18
2018-03-11T14:01:47.507Z,37.21
2018-03-11T14:02:47.491Z,37.12
2018-03-11T14:03:47.756Z,37.09
2018-03-11T14:04:47.563Z,37.21
2018-03-11T14:05:47.503Z,37.15
2018-03-11T14:06:47.459Z,37.07
2018-03-11T14:07:47.498Z,37.11
2018-03-11T14:08:47.501Z,37.09
2018-03-11T14:09:47.473Z,37.06
2018-03-11T14:10:47.489Z,37.08
2018-03-11T14:11:47.488Z,37.03
2018-03-11T14:12:47.465Z,36.96
2018-03-11T14:13:47.500Z,37
2018-03-11T14:14:47.521Z,37
2018-03-11T14:15:47.461Z,36.87
2018-03-11T14:16:47.505Z,36.88
2018-03-11T14:17:47.491Z,36.92
2018-03-11T14:18:47.457Z,36.83
2018-03-11T14:19:47.510Z,37.51
2018-03-11T14:20:47.470Z,37.17
2018-03-11T14:21:47.486Z,37.36
2018-03-11T14:22:47.498Z,37.1
2018-03-11T14:23:47.498Z,37.21
2018-03-11T14:24:47.470Z,37.31
2018-03-11T14:25:47.522Z,37.22
2018-03-11T14:26:47.491Z,37.28
2018-03-11T14:27:47.461Z,37.14
2018-03-11T14:28:47.577Z,37.29
2018-03-11T14:29:47.491Z,37.2
2018-03-11T14:30:47.453Z,37.15
2018-03-11T14:31:47.515Z,37.06
2018-03-11T14:32:47.498Z,37
2018-03-11T14:33:47.476Z,36.86
2018-03-11T14:34:47.594Z,37.03
2018-03-11T14:35:47.483Z,37.11
2018-03-11T14:36:47.484Z,37.21
2018-03-11T14:37:47.526Z,37.25
2018-03-11T14:38:47.493Z,37.63
2018-03-11T14:39:47.515Z,37.42
2018-03-11T14:40:47.584Z,37.51
2018-03-11T14:41:47.477Z,37.35
2018-03-11T14:42:47.476Z,37.29
2018-03-11T14:43:47.543Z,37.35
2018-03-11T14:44:47.459Z,37.36